KAZO

Kalamazoo / Battle Creek International Airport

Kalamazoo, Michigan, USA
METAR KAZO 151953Z VRB04KT 10SM SCT044 BKN090 32/20 A2998 RMK AO2 SLP143 T03220200
Observed Flight Rules
Jul-15 @ 19:53 UTC (an hour ago) Visual Flight Rules
Wind Visibility Clouds
Variable at 4 knots 10 miles
  • Scattered at 4,400' AGL
  • Broken at 9,000' AGL
Temperatures Readings
Current 32°C / 90°F
Dewpoint 20°C / 68°F
Humidity 49%
Altimeter 29.98" Hg
Pressure 1014.3 hPa
Elevation 272
METAR KAZO 151953Z VRB04KT 10SM SCT044 BKN090 32/20 A2998 RMK AO2 SLP143 T03220200
Observed Flight Rules
Jul-15 @ 19:53 UTC
(an hour ago)
VFR
Wind Visibility
Variable at 4 knots 10 miles
Clouds
  • Scattered at 4,400' AGL
  • Broken at 9,000' AGL
Temperature Dewpoint
32°C / 90°F 20°C / 68°F
Humidity Altimeter Pressure
49% 29.98" Hg 1014.3 hPa